createdAt,value
2018-06-27T00:00:16.642Z,14.66
2018-06-27T00:01:16.507Z,14.82
2018-06-27T00:02:16.454Z,14.64
2018-06-27T00:03:16.359Z,14.66
2018-06-27T00:04:16.417Z,14.64
2018-06-27T00:05:16.183Z,14.67
2018-06-27T00:06:16.181Z,14.66
2018-06-27T00:07:16.012Z,14.69
2018-06-27T00:08:16.021Z,14.66
2018-06-27T00:09:15.883Z,14.64
2018-06-27T00:10:15.890Z,14.66
2018-06-27T00:11:15.691Z,14.66
2018-06-27T00:12:15.696Z,14.54
2018-06-27T00:13:15.528Z,14.54
2018-06-27T00:14:15.551Z,14.52
2018-06-27T00:15:15.379Z,14.49
2018-06-27T00:16:15.421Z,14.42
2018-06-27T00:17:15.213Z,14.52
2018-06-27T00:19:57.287Z,14.38
2018-06-27T00:20:57.237Z,14.44
2018-06-27T00:21:57.114Z,14.44
2018-06-27T00:22:57.135Z,14.41
2018-06-27T00:23:56.970Z,14.38
2018-06-27T00:24:56.998Z,14.41
2018-06-27T00:25:56.795Z,14.39
2018-06-27T00:26:56.775Z,14.42
2018-06-27T00:27:56.653Z,14.38
2018-06-27T00:28:56.662Z,14.44
2018-06-27T00:29:56.491Z,14.41
2018-06-27T00:32:38.786Z,14.27
2018-06-27T00:35:20.795Z,14.23
2018-06-27T00:36:20.773Z,14.08
2018-06-27T00:37:20.617Z,14.23
2018-06-27T00:38:20.590Z,14.21
2018-06-27T00:39:20.462Z,14.12
2018-06-27T00:40:20.527Z,14.23
2018-06-27T00:41:20.296Z,14.21
2018-06-27T00:42:20.300Z,14.29
2018-06-27T00:43:20.142Z,14.17
2018-06-27T00:44:20.112Z,14.17
2018-06-27T00:45:20.018Z,14.13
2018-06-27T00:46:20.028Z,14.19
2018-06-27T00:47:19.823Z,14.11
2018-06-27T00:48:19.835Z,14.11
2018-06-27T00:49:19.669Z,14.19
2018-06-27T00:50:19.783Z,14.16
2018-06-27T00:51:19.510Z,14.02
2018-06-27T00:52:19.569Z,14.02
2018-06-27T00:53:19.352Z,14.09
2018-06-27T00:56:27.350Z,13.99
2018-06-27T00:59:09.292Z,14.02
2018-06-27T01:00:09.258Z,13.96
2018-06-27T01:01:09.139Z,13.87
2018-06-27T01:02:09.191Z,14.04
2018-06-27T01:03:08.964Z,13.94
2018-06-27T01:04:08.986Z,13.91
2018-06-27T01:05:08.804Z,13.99
2018-06-27T01:06:08.852Z,13.98
2018-06-27T01:07:08.661Z,13.88
2018-06-27T01:08:08.603Z,14.01
2018-06-27T01:09:08.486Z,13.96
2018-06-27T01:10:08.500Z,13.98
2018-06-27T01:11:08.355Z,14.05
2018-06-27T01:12:08.320Z,14.05
2018-06-27T01:13:08.162Z,14.02
2018-06-27T01:14:08.125Z,14.04
2018-06-27T01:15:08.018Z,14.13
2018-06-27T01:16:08.085Z,14.17
2018-06-27T01:17:07.861Z,14.16
2018-06-27T01:18:07.859Z,14.06
2018-06-27T01:19:07.702Z,14.08
2018-06-27T01:21:49.819Z,14.06
2018-06-27T01:24:31.782Z,13.94
2018-06-27T01:25:31.755Z,13.99
2018-06-27T01:26:31.644Z,14.04
2018-06-27T01:27:31.702Z,13.93
2018-06-27T01:28:31.466Z,13.94
2018-06-27T01:29:31.469Z,13.94
2018-06-27T01:30:31.311Z,13.93
2018-06-27T01:31:31.280Z,14.06
2018-06-27T01:32:31.169Z,13.93
2018-06-27T01:33:31.190Z,14.08
2018-06-27T01:34:30.994Z,14.08
2018-06-27T01:35:30.995Z,14.08
2018-06-27T01:36:30.868Z,13.98
2018-06-27T01:37:30.842Z,14.02
2018-06-27T01:39:55.293Z,13.98
2018-06-27T01:42:33.434Z,13.93
2018-06-27T01:43:33.217Z,13.90
2018-06-27T01:44:33.209Z,13.98
2018-06-27T01:45:33.049Z,13.93
2018-06-27T01:48:15.328Z,13.91
2018-06-27T01:49:15.320Z,13.87
2018-06-27T01:50:15.148Z,13.91
2018-06-27T01:51:15.132Z,13.94
2018-06-27T01:52:14.966Z,13.91
2018-06-27T01:53:15.996Z,13.91
2018-06-27T01:54:14.835Z,13.96
2018-06-27T01:55:14.845Z,13.94
2018-06-27T01:56:14.658Z,13.99
2018-06-27T01:57:14.651Z,13.98
2018-06-27T01:58:14.525Z,13.86
2018-06-27T01:59:14.453Z,13.94
2018-06-27T02:00:14.336Z,13.83
2018-06-27T02:01:14.382Z,13.80
2018-06-27T02:02:14.180Z,13.83
2018-06-27T02:03:15.262Z,13.75
2018-06-27T02:04:14.011Z,13.83
2018-06-27T02:05:13.995Z,13.80
2018-06-27T02:09:01.863Z,13.65
2018-06-27T02:10:01.727Z,13.69
2018-06-27T02:11:01.740Z,13.62
2018-06-27T02:12:01.555Z,13.62
2018-06-27T02:13:01.554Z,13.54
2018-06-27T02:14:01.422Z,13.54
2018-06-27T02:15:01.366Z,13.51
2018-06-27T02:16:01.243Z,13.47
2018-06-27T02:18:43.318Z,13.48
2018-06-27T02:19:43.317Z,13.51
2018-06-27T02:20:43.155Z,13.46
2018-06-27T02:21:43.177Z,13.53
2018-06-27T02:22:42.983Z,13.54
2018-06-27T02:23:42.991Z,13.53
2018-06-27T02:24:42.840Z,13.44
2018-06-27T02:25:42.798Z,13.43
2018-06-27T02:26:42.808Z,13.47
2018-06-27T02:27:42.708Z,13.44
2018-06-27T02:28:42.526Z,13.47
2018-06-27T02:29:42.520Z,13.47
2018-06-27T02:30:42.344Z,13.47
2018-06-27T02:31:42.313Z,13.44
2018-06-27T02:32:42.188Z,13.35
2018-06-27T02:33:42.130Z,13.22
2018-06-27T02:34:42.045Z,13.39
2018-06-27T02:37:24.312Z,13.27
2018-06-27T02:38:24.357Z,13.27
2018-06-27T02:39:24.180Z,13.28
2018-06-27T02:40:24.187Z,13.31
2018-06-27T02:41:24.004Z,13.21
2018-06-27T02:42:23.966Z,13.21
2018-06-27T02:43:23.837Z,13.36
2018-06-27T02:44:23.887Z,13.17
2018-06-27T02:45:23.685Z,13.31
2018-06-27T02:46:23.687Z,13.41
2018-06-27T02:47:23.529Z,13.29
2018-06-27T02:50:05.834Z,13.31
2018-06-27T02:52:30.319Z,13.25
2018-06-27T02:53:30.265Z,13.35
2018-06-27T02:56:12.333Z,13.28
2018-06-27T02:57:12.286Z,13.22
2018-06-27T02:58:12.160Z,13.29
2018-06-27T02:59:12.096Z,13.25
2018-06-27T03:00:12.017Z,13.29
2018-06-27T03:01:12.015Z,13.21
2018-06-27T03:02:11.826Z,13.28
2018-06-27T03:05:45.543Z,13.22
2018-06-27T03:06:45.573Z,13.16
2018-06-27T03:07:45.352Z,13.27
2018-06-27T03:08:45.327Z,13.21
2018-06-27T03:09:45.202Z,13.22
2018-06-27T03:10:45.171Z,13.21
2018-06-27T03:11:45.086Z,13.25
2018-06-27T03:12:45.049Z,13.28
2018-06-27T03:13:44.897Z,13.27
2018-06-27T03:14:44.862Z,13.35
2018-06-27T03:15:44.742Z,13.25
2018-06-27T03:16:44.670Z,13.36
2018-06-27T03:17:44.566Z,13.24
2018-06-27T03:18:44.578Z,13.31
2018-06-27T03:19:44.407Z,13.21
2018-06-27T03:20:44.430Z,13.24
2018-06-27T03:21:44.239Z,13.31
2018-06-27T03:22:44.199Z,13.25
2018-06-27T03:23:44.078Z,13.36
2018-06-27T03:24:44.120Z,13.28
2018-06-27T03:25:43.983Z,13.48
2018-06-27T03:26:43.919Z,13.43
2018-06-27T03:27:43.772Z,13.54
2018-06-27T03:28:43.723Z,13.46
2018-06-27T03:29:43.607Z,13.57
2018-06-27T03:30:43.665Z,13.69
2018-06-27T03:31:43.438Z,13.71
2018-06-27T03:32:43.451Z,13.79
2018-06-27T03:33:43.289Z,13.93
2018-06-27T03:34:43.279Z,13.94
2018-06-27T03:35:43.116Z,13.94
2018-06-27T03:36:44.117Z,13.93
2018-06-27T03:37:42.977Z,13.93
2018-06-27T03:38:42.973Z,13.84
2018-06-27T03:39:42.797Z,13.91
2018-06-27T03:40:42.785Z,13.94
2018-06-27T03:41:42.669Z,13.81
2018-06-27T03:42:42.692Z,13.75
2018-06-27T03:43:42.478Z,13.87
2018-06-27T03:46:24.362Z,13.88
2018-06-27T03:47:24.301Z,13.93
2018-06-27T03:48:24.162Z,13.98
2018-06-27T03:49:24.201Z,13.98
2018-06-27T03:50:23.999Z,13.93
2018-06-27T03:55:55.345Z,14.02
2018-06-27T03:56:56.698Z,14.08
2018-06-27T03:57:55.185Z,14.06
2018-06-27T04:00:37.327Z,13.98
2018-06-27T04:01:37.299Z,14.06
2018-06-27T04:02:37.184Z,14.09
2018-06-27T04:03:37.238Z,14.06
2018-06-27T04:04:37.013Z,14.08
2018-06-27T04:05:36.940Z,14.20
2018-06-27T04:06:36.910Z,14.19
2018-06-27T04:07:36.937Z,14.17
2018-06-27T04:08:36.733Z,14.16
2018-06-27T04:09:36.693Z,14.06
2018-06-27T04:10:36.536Z,14.11
2018-06-27T04:11:36.532Z,14.12
2018-06-27T04:12:36.429Z,14.12
2018-06-27T04:13:36.378Z,14.12
2018-06-27T04:14:36.259Z,14.20
2018-06-27T04:15:36.252Z,14.23
2018-06-27T04:16:36.054Z,14.35
2018-06-27T04:17:36.061Z,14.31
2018-06-27T04:18:35.913Z,14.30
2018-06-27T04:19:35.863Z,14.36
2018-06-27T04:20:35.730Z,14.34
2018-06-27T04:21:35.678Z,14.44
2018-06-27T04:22:35.565Z,14.27
2018-06-27T04:23:35.583Z,14.38
2018-06-27T04:24:35.437Z,14.34
2018-06-27T04:25:35.389Z,14.29
2018-06-27T04:26:35.252Z,14.26
2018-06-27T04:27:35.204Z,14.23
2018-06-27T04:28:35.095Z,14.08
2018-06-27T04:29:35.147Z,14.16
2018-06-27T04:30:34.932Z,14.23
2018-06-27T04:33:16.839Z,14.31
2018-06-27T04:34:16.843Z,14.42
2018-06-27T04:35:16.690Z,14.49
2018-06-27T04:36:16.633Z,14.52
2018-06-27T04:37:16.538Z,14.64
2018-06-27T04:39:58.416Z,14.72
2018-06-27T04:41:00.176Z,14.66
2018-06-27T04:41:58.177Z,14.79
2018-06-27T04:43:00.397Z,14.74
2018-06-27T04:43:58.020Z,14.75
2018-06-27T04:44:58.505Z,14.78
2018-06-27T04:45:57.883Z,14.80
2018-06-27T04:48:51.365Z,14.93
2018-06-27T04:49:51.330Z,14.91
2018-06-27T04:50:51.210Z,14.80
2018-06-27T04:51:51.116Z,14.85
2018-06-27T04:52:51.015Z,14.75
2018-06-27T04:53:50.958Z,14.90
2018-06-27T04:54:50.892Z,14.98
2018-06-27T04:55:50.791Z,15.05
2018-06-27T04:56:50.720Z,15.15
2018-06-27T04:57:50.629Z,15.15
2018-06-27T04:58:50.602Z,15.27
2018-06-27T04:59:50.476Z,15.27
2018-06-27T05:00:50.378Z,15.30
2018-06-27T05:01:50.408Z,15.37
2018-06-27T05:02:50.221Z,15.35
2018-06-27T05:03:50.144Z,15.44
2018-06-27T05:04:50.062Z,15.38
2018-06-27T05:05:50.022Z,15.77
2018-06-27T05:06:49.929Z,15.77
2018-06-27T05:09:31.843Z,15.56
2018-06-27T05:10:31.796Z,15.53
2018-06-27T05:11:31.758Z,15.41
2018-06-27T05:12:31.608Z,15.37
2018-06-27T05:13:31.524Z,15.38
2018-06-27T05:14:31.459Z,15.40
2018-06-27T05:15:31.385Z,15.41
2018-06-27T05:18:20.375Z,15.43
2018-06-27T05:21:02.380Z,15.56
2018-06-27T05:22:03.547Z,15.58
2018-06-27T05:23:02.180Z,15.56
2018-06-27T05:24:02.110Z,15.64
2018-06-27T05:25:02.035Z,15.68
2018-06-27T05:26:01.960Z,15.59
2018-06-27T05:27:01.920Z,15.70
2018-06-27T05:29:49.365Z,15.62
2018-06-27T05:30:49.282Z,15.56
2018-06-27T05:31:49.210Z,15.68
2018-06-27T05:32:49.133Z,15.66
2018-06-27T05:33:49.074Z,15.71
2018-06-27T05:36:30.851Z,15.84
2018-06-27T05:37:30.923Z,15.86
2018-06-27T05:38:30.694Z,15.80
2018-06-27T05:39:30.617Z,15.89
2018-06-27T05:40:30.536Z,15.96
2018-06-27T05:41:30.491Z,15.80
2018-06-27T05:42:30.420Z,15.84
2018-06-27T05:43:31.314Z,15.86
2018-06-27T05:44:30.201Z,15.92
2018-06-27T05:45:30.165Z,15.78
2018-06-27T05:46:30.057Z,15.86
2018-06-27T05:47:30.053Z,15.88
2018-06-27T05:48:29.994Z,15.78
2018-06-27T05:51:11.857Z,16.04
2018-06-27T05:52:11.785Z,15.96
2018-06-27T05:53:11.715Z,15.96
2018-06-27T05:55:53.852Z,16.03
2018-06-27T05:56:53.785Z,16.07
2018-06-27T05:57:53.732Z,16.13
2018-06-27T05:58:53.629Z,16.17
2018-06-27T05:59:53.567Z,16.11
2018-06-27T06:00:53.478Z,16.23
2018-06-27T06:01:53.388Z,16.26
2018-06-27T06:02:53.333Z,16.26
2018-06-27T06:03:53.221Z,16.23
2018-06-27T06:06:35.351Z,16.34
2018-06-27T06:09:17.390Z,16.41
2018-06-27T06:10:17.277Z,16.47
2018-06-27T06:11:17.217Z,16.47
2018-06-27T06:12:19.119Z,16.50
2018-06-27T06:13:17.066Z,16.51
2018-06-27T06:14:16.977Z,16.55
2018-06-27T06:15:16.900Z,16.59
2018-06-27T06:16:16.831Z,16.60
2018-06-27T06:17:16.723Z,16.62
2018-06-27T06:18:16.683Z,16.72
2018-06-27T06:19:16.580Z,16.77
2018-06-27T06:20:17.507Z,16.78
2018-06-27T06:21:16.420Z,16.72
2018-06-27T06:23:58.372Z,16.90
2018-06-27T06:27:22.371Z,17.06
2018-06-27T06:28:22.284Z,17.14
2018-06-27T06:29:22.205Z,17.12
2018-06-27T06:30:22.151Z,17.17
2018-06-27T06:31:22.047Z,17.10
2018-06-27T06:32:22.001Z,17.22
2018-06-27T06:33:21.893Z,17.27
2018-06-27T06:34:21.820Z,17.47
2018-06-27T06:35:21.751Z,18.31
2018-06-27T06:36:21.661Z,19.49
2018-06-27T06:37:21.569Z,20.87
2018-06-27T06:40:03.857Z,22.76
2018-06-27T06:41:03.819Z,23.47
2018-06-27T06:42:03.713Z,23.99
2018-06-27T06:44:45.863Z,23.77
2018-06-27T06:45:45.835Z,23.82
2018-06-27T06:46:45.713Z,23.81
2018-06-27T06:47:45.642Z,24.00
2018-06-27T06:48:45.568Z,24.86
2018-06-27T06:49:45.489Z,25.30
2018-06-27T06:50:45.437Z,24.70
2018-06-27T06:51:45.336Z,24.71
2018-06-27T06:52:45.268Z,24.42
2018-06-27T06:53:45.260Z,24.90
2018-06-27T06:54:45.115Z,25.44
2018-06-27T06:55:46.057Z,25.86
2018-06-27T06:56:44.962Z,25.60
2018-06-27T06:57:44.892Z,25.66
2018-06-27T06:58:44.840Z,25.48
2018-06-27T07:01:26.897Z,25.89
2018-06-27T07:02:26.888Z,25.53
2018-06-27T07:03:26.755Z,25.45
2018-06-27T07:04:26.660Z,25.38
2018-06-27T07:05:26.589Z,25.51
2018-06-27T07:06:27.538Z,25.86
2018-06-27T07:07:26.427Z,25.71
2018-06-27T07:08:26.382Z,24.41
2018-06-27T07:09:26.280Z,24.21
2018-06-27T07:12:08.405Z,25.60
2018-06-27T07:13:10.006Z,26.24
2018-06-27T07:14:08.510Z,26.46
2018-06-27T07:15:08.381Z,25.31
2018-06-27T07:16:08.675Z,24.37
2018-06-27T07:17:09.405Z,24.39
2018-06-27T07:18:07.954Z,24.77
2018-06-27T07:19:07.875Z,24.77
2018-06-27T07:20:07.799Z,24.79
2018-06-27T07:21:07.762Z,25.05
2018-06-27T07:22:07.681Z,25.66
2018-06-27T07:23:07.598Z,25.86
2018-06-27T07:24:07.523Z,25.90
2018-06-27T07:25:07.450Z,26.59
2018-06-27T07:26:07.373Z,26.31
2018-06-27T07:27:07.339Z,25.08
2018-06-27T07:28:07.241Z,24.92
2018-06-27T07:29:07.164Z,25.36
2018-06-27T07:30:07.088Z,25.31
2018-06-27T07:31:07.053Z,25.08
2018-06-27T07:32:06.970Z,25.63
2018-06-27T07:33:06.890Z,26.11
2018-06-27T07:34:06.803Z,26.19
2018-06-27T07:35:06.744Z,26.51
2018-06-27T07:36:06.824Z,27.02
2018-06-27T07:37:06.600Z,26.93
2018-06-27T07:38:06.541Z,26.84
2018-06-27T07:39:06.477Z,26.69
2018-06-27T07:40:06.387Z,26.73
2018-06-27T07:41:06.316Z,27.68
2018-06-27T07:42:06.241Z,27.59
2018-06-27T07:43:06.188Z,28.18
2018-06-27T07:44:06.119Z,28.24
2018-06-27T07:45:06.047Z,28.13
2018-06-27T07:46:05.964Z,28.09
2018-06-27T07:47:05.898Z,28.36
2018-06-27T07:48:05.835Z,28.35
2018-06-27T07:49:05.765Z,27.08
2018-06-27T07:50:05.685Z,27.25
2018-06-27T07:51:05.637Z,27.08
2018-06-27T07:52:05.552Z,27.42
2018-06-27T07:53:05.519Z,27.49
2018-06-27T07:54:05.446Z,27.42
2018-06-27T07:55:05.409Z,27.90
2018-06-27T07:56:05.270Z,28.45
2018-06-27T07:57:05.206Z,28.69
2018-06-27T07:58:05.126Z,28.62
2018-06-27T07:59:05.103Z,27.99
2018-06-27T08:00:05.039Z,27.65
2018-06-27T08:01:04.934Z,27.42
2018-06-27T08:02:04.862Z,27.30
2018-06-27T08:03:04.793Z,27.90
2018-06-27T08:04:04.740Z,27.65
2018-06-27T08:05:04.657Z,26.91
2018-06-27T08:06:04.594Z,27.01
2018-06-27T08:07:04.552Z,27.11
2018-06-27T08:08:04.449Z,27.31
2018-06-27T08:09:04.425Z,27.34
2018-06-27T08:10:04.318Z,27.98
2018-06-27T08:12:46.408Z,28.08
2018-06-27T08:13:46.373Z,27.96
2018-06-27T08:14:46.272Z,27.84
2018-06-27T08:15:46.220Z,27.46
2018-06-27T08:16:46.144Z,27.06
2018-06-27T08:19:28.440Z,27.39
2018-06-27T08:20:28.343Z,27.40
2018-06-27T08:21:28.264Z,27.71
2018-06-27T08:22:28.210Z,27.88
2018-06-27T08:23:28.128Z,27.48
2018-06-27T08:24:28.091Z,27.68
2018-06-27T08:25:27.999Z,28.17
2018-06-27T08:28:09.912Z,27.71
2018-06-27T08:29:09.872Z,27.76
2018-06-27T08:30:09.778Z,27.93
2018-06-27T08:31:09.725Z,27.86
2018-06-27T08:32:09.636Z,27.62
2018-06-27T08:34:51.936Z,28.03
2018-06-27T08:35:51.850Z,28.27
2018-06-27T08:36:51.776Z,28.25
2018-06-27T08:37:51.716Z,28.57
2018-06-27T08:38:51.646Z,28.73
2018-06-27T08:39:51.605Z,29.00
2018-06-27T08:40:51.519Z,28.73
2018-06-27T08:41:51.448Z,27.12
2018-06-27T08:42:51.380Z,27.13
2018-06-27T08:43:51.328Z,27.81
2018-06-27T08:44:51.260Z,28.25
2018-06-27T08:47:33.462Z,28.46
2018-06-27T08:48:33.349Z,28.88
2018-06-27T08:49:33.324Z,28.48
2018-06-27T08:52:15.416Z,28.97
2018-06-27T08:53:17.361Z,29.30
2018-06-27T08:54:15.280Z,29.63
2018-06-27T08:55:17.271Z,29.23
2018-06-27T08:56:15.165Z,29.07
2018-06-27T08:57:15.089Z,29.12
2018-06-27T08:58:15.032Z,28.82
2018-06-27T08:59:14.973Z,28.28
2018-06-27T09:00:14.923Z,28.58
2018-06-27T09:01:14.833Z,28.72
2018-06-27T09:02:14.755Z,29.08
2018-06-27T09:03:14.709Z,27.78
2018-06-27T09:04:14.632Z,28.02
2018-06-27T09:05:14.581Z,27.93
2018-06-27T09:06:14.505Z,28.08
2018-06-27T09:08:56.436Z,27.98
2018-06-27T09:09:56.398Z,28.24
2018-06-27T09:10:56.292Z,28.40
2018-06-27T09:13:38.425Z,29.02
2018-06-27T09:14:38.383Z,29.11
2018-06-27T09:15:38.323Z,28.82
2018-06-27T09:16:38.267Z,29.39
2018-06-27T09:17:38.163Z,29.30
2018-06-27T09:18:38.144Z,29.49
2018-06-27T09:19:38.040Z,28.73
2018-06-27T09:20:37.992Z,29.14
2018-06-27T09:21:37.929Z,29.48
2018-06-27T09:24:19.937Z,28.42
2018-06-27T09:25:19.892Z,28.57
2018-06-27T09:26:19.812Z,28.69
2018-06-27T09:27:19.736Z,28.88
2018-06-27T09:28:19.682Z,29.41
2018-06-27T09:29:19.608Z,29.47
2018-06-27T09:30:19.682Z,28.52
2018-06-27T09:31:20.458Z,28.35
2018-06-27T09:32:19.543Z,28.67
2018-06-27T09:33:20.053Z,29.21
2018-06-27T09:34:19.293Z,29.20
2018-06-27T09:35:19.242Z,29.58
2018-06-27T09:36:19.193Z,29.57
2018-06-27T09:37:19.094Z,29.14
2018-06-27T09:38:19.023Z,28.52
2018-06-27T09:39:18.979Z,28.91
2018-06-27T09:40:18.928Z,28.23
2018-06-27T09:41:18.848Z,27.52
2018-06-27T09:42:18.775Z,27.61
2018-06-27T09:45:00.936Z,28.80
2018-06-27T09:46:00.902Z,28.74
2018-06-27T09:47:00.831Z,29.08
2018-06-27T09:48:01.796Z,29.48
2018-06-27T09:49:00.671Z,30.00
2018-06-27T09:51:42.960Z,30.36
2018-06-27T09:52:42.880Z,29.55
2018-06-27T09:53:42.812Z,29.08
2018-06-27T09:54:42.846Z,27.96
2018-06-27T09:55:42.712Z,28.15
2018-06-27T09:56:42.642Z,29.05
2018-06-27T09:57:42.571Z,29.57
2018-06-27T09:58:42.518Z,29.39
2018-06-27T09:59:42.424Z,28.25
2018-06-27T10:02:24.448Z,28.51
2018-06-27T10:03:24.434Z,28.80
2018-06-27T10:04:24.339Z,28.61
2018-06-27T10:07:06.489Z,29.67
2018-06-27T10:09:48.445Z,30.07
2018-06-27T10:10:48.444Z,30.57
2018-06-27T10:11:48.316Z,30.81
2018-06-27T10:12:48.269Z,31.04
2018-06-27T10:13:48.194Z,30.44
2018-06-27T10:14:48.141Z,30.28
2018-06-27T10:15:48.075Z,30.44
2018-06-27T10:16:48.030Z,30.61
2018-06-27T10:17:47.964Z,30.45
2018-06-27T10:18:47.882Z,30.04
2018-06-27T10:19:47.822Z,29.76
2018-06-27T10:20:47.765Z,29.78
2018-06-27T10:21:47.726Z,30.44
2018-06-27T10:24:29.962Z,29.51
2018-06-27T10:25:29.970Z,29.48
2018-06-27T10:26:29.883Z,29.69
2018-06-27T10:27:30.798Z,30.11
2018-06-27T10:28:29.787Z,30.32
2018-06-27T10:31:11.968Z,30.54
2018-06-27T10:32:11.949Z,30.48
2018-06-27T10:33:11.860Z,30.26
2018-06-27T10:34:11.787Z,29.52
2018-06-27T10:35:11.724Z,29.44
2018-06-27T10:37:54.027Z,30.38
2018-06-27T10:38:53.895Z,30.11
2018-06-27T10:39:53.828Z,30.44
2018-06-27T10:42:35.961Z,29.66
2018-06-27T10:43:36.924Z,28.54
2018-06-27T10:44:35.889Z,29.15
2018-06-27T10:47:18.008Z,30.44
2018-06-27T10:49:59.965Z,31.18
2018-06-27T10:52:41.977Z,30.96
2018-06-27T10:53:41.914Z,30.44
2018-06-27T10:54:41.847Z,30.44
2018-06-27T10:55:41.790Z,30.76
2018-06-27T10:56:41.717Z,30.57
2018-06-27T10:57:41.717Z,30.49
2018-06-27T10:58:41.603Z,30.44
2018-06-27T10:59:41.524Z,30.25
2018-06-27T11:00:41.462Z,30.60
2018-06-27T11:03:23.505Z,29.51
2018-06-27T11:04:24.495Z,30.23
2018-06-27T11:05:23.370Z,30.44
2018-06-27T11:06:23.313Z,30.60
2018-06-27T11:07:23.229Z,30.60
2018-06-27T11:08:23.180Z,31.09
2018-06-27T11:09:23.166Z,30.61
2018-06-27T11:12:05.017Z,30.54
2018-06-27T11:13:06.003Z,30.64
2018-06-27T11:14:05.012Z,29.74
2018-06-27T11:15:04.815Z,30.13
2018-06-27T11:16:04.759Z,30.44
2018-06-27T11:18:47.090Z,30.42
2018-06-27T11:19:47.950Z,30.04
2018-06-27T11:20:46.866Z,30.06
2018-06-27T11:21:46.814Z,30.49
2018-06-27T11:22:46.736Z,29.66
2018-06-27T11:23:46.683Z,30.19
2018-06-27T11:24:46.669Z,30.40
2018-06-27T11:25:46.555Z,31.00
2018-06-27T11:26:46.479Z,31.28
2018-06-27T11:27:46.429Z,31.41
2018-06-27T11:28:46.350Z,31.75
2018-06-27T11:29:46.330Z,31.78
2018-06-27T11:30:46.264Z,31.40
2018-06-27T11:31:46.165Z,31.49
2018-06-27T11:32:46.126Z,31.65
2018-06-27T11:33:46.073Z,31.38
2018-06-27T11:34:45.997Z,31.37
2018-06-27T11:35:45.927Z,30.94
2018-06-27T11:36:45.854Z,31.13
2018-06-27T11:39:28.001Z,31.92
2018-06-27T11:40:28.048Z,31.68
2018-06-27T11:41:27.890Z,30.56
2018-06-27T11:42:27.823Z,30.70
2018-06-27T11:43:27.752Z,30.86
2018-06-27T11:44:27.703Z,31.23
2018-06-27T11:45:27.648Z,31.65
2018-06-27T11:46:27.561Z,30.45
2018-06-27T11:47:27.504Z,30.01
2018-06-27T11:48:27.438Z,29.85
2018-06-27T11:49:27.382Z,30.18
2018-06-27T11:52:09.524Z,30.19
2018-06-27T11:54:51.516Z,30.75
2018-06-27T11:57:33.523Z,30.88
2018-06-27T11:58:33.450Z,30.64
2018-06-27T11:59:33.374Z,30.72
2018-06-27T12:02:15.537Z,29.33
2018-06-27T12:03:15.443Z,29.36
2018-06-27T12:04:15.383Z,29.60
2018-06-27T12:06:57.509Z,29.21
2018-06-27T12:07:57.460Z,29.11
2018-06-27T12:08:57.369Z,29.36
2018-06-27T12:09:57.325Z,29.57
2018-06-27T12:10:57.236Z,29.37
2018-06-27T12:11:57.205Z,28.92
2018-06-27T12:12:57.115Z,28.39
2018-06-27T12:13:57.037Z,28.03
2018-06-27T12:14:56.960Z,27.58
2018-06-27T12:15:56.919Z,27.33
2018-06-27T12:16:56.894Z,27.09
2018-06-27T12:17:57.781Z,27.02
2018-06-27T12:18:56.695Z,26.87
2018-06-27T12:19:56.639Z,26.86
2018-06-27T12:20:56.582Z,27.16
2018-06-27T12:23:38.547Z,27.62
2018-06-27T12:24:38.464Z,27.76
2018-06-27T12:25:38.374Z,27.43
2018-06-27T12:26:38.336Z,27.33
2018-06-27T12:27:38.245Z,27.65
2018-06-27T12:30:20.525Z,27.61
2018-06-27T12:31:20.491Z,27.62
2018-06-27T12:32:20.444Z,27.58
2018-06-27T12:33:20.334Z,27.91
2018-06-27T12:34:20.224Z,28.21
2018-06-27T12:37:02.518Z,28.11
2018-06-27T12:38:02.484Z,27.69
2018-06-27T12:39:02.378Z,27.39
2018-06-27T12:40:02.316Z,27.74
2018-06-27T12:41:02.243Z,27.40
2018-06-27T12:42:02.173Z,27.30
2018-06-27T12:43:02.132Z,27.50
2018-06-27T12:44:02.014Z,27.63
2018-06-27T12:45:01.959Z,27.55
2018-06-27T12:46:01.895Z,27.59
2018-06-27T12:47:01.796Z,27.55
2018-06-27T12:49:44.051Z,28.21
2018-06-27T12:50:43.961Z,28.35
2018-06-27T12:51:43.882Z,28.64
2018-06-27T12:54:26.053Z,28.45
2018-06-27T12:57:08.024Z,27.80
2018-06-27T12:58:07.967Z,27.58
2018-06-27T12:59:07.916Z,27.69
2018-06-27T13:00:07.815Z,27.80
2018-06-27T13:01:07.741Z,27.68
2018-06-27T13:02:07.688Z,27.61
2018-06-27T13:03:07.592Z,27.63
2018-06-27T13:04:07.525Z,27.45
2018-06-27T13:05:07.482Z,27.65
2018-06-27T13:06:07.389Z,27.86
2018-06-27T13:07:07.326Z,28.17
2018-06-27T13:09:49.566Z,27.80
2018-06-27T13:10:49.463Z,27.49
2018-06-27T13:11:49.398Z,27.23
2018-06-27T13:14:31.617Z,26.93
2018-06-27T13:15:31.495Z,26.69
2018-06-27T13:16:31.397Z,26.71
2018-06-27T13:17:31.348Z,26.72
2018-06-27T13:18:31.239Z,26.76
2018-06-27T13:19:31.189Z,26.98
2018-06-27T13:20:31.144Z,27.11
2018-06-27T13:21:31.033Z,27.16
2018-06-27T13:22:30.956Z,27.33
2018-06-27T13:25:13.060Z,27.58
2018-06-27T13:26:12.972Z,27.30
2018-06-27T13:27:12.931Z,27.33
2018-06-27T13:28:12.837Z,27.23
2018-06-27T13:29:12.744Z,27.33
2018-06-27T13:30:12.750Z,27.58
2018-06-27T13:31:12.609Z,27.86
2018-06-27T13:32:12.558Z,27.71
2018-06-27T13:33:12.463Z,27.71
2018-06-27T13:35:54.586Z,27.68
2018-06-27T13:36:55.491Z,27.55
2018-06-27T13:37:54.398Z,27.61
2018-06-27T13:40:36.553Z,27.53
2018-06-27T13:41:36.481Z,27.43
2018-06-27T13:42:36.545Z,27.50
2018-06-27T13:43:36.337Z,27.62
2018-06-27T13:44:36.256Z,27.61
2018-06-27T13:45:36.213Z,27.81
2018-06-27T13:46:36.131Z,27.95
2018-06-27T13:47:36.080Z,27.95
2018-06-27T13:48:35.981Z,27.87
2018-06-27T13:51:18.074Z,27.01
2018-06-27T13:52:18.234Z,26.96
2018-06-27T13:53:17.905Z,27.02
2018-06-27T13:56:00.048Z,26.93
2018-06-27T13:57:00.008Z,26.98
2018-06-27T13:57:59.916Z,27.01
2018-06-27T13:58:59.844Z,26.88
2018-06-27T13:59:59.754Z,26.91
2018-06-27T14:00:59.696Z,26.76
2018-06-27T14:01:59.716Z,26.86
2018-06-27T14:02:59.554Z,26.81
2018-06-27T14:03:59.471Z,26.86
2018-06-27T14:04:59.410Z,26.98
2018-06-27T14:05:59.325Z,26.86
2018-06-27T14:06:59.253Z,27.02
2018-06-27T14:07:59.196Z,27.01
2018-06-27T14:10:41.065Z,26.90
2018-06-27T14:11:40.982Z,27.01
2018-06-27T14:12:40.953Z,27.16
2018-06-27T14:13:40.842Z,27.35
2018-06-27T14:14:40.771Z,27.45
2018-06-27T14:15:40.698Z,27.63
2018-06-27T14:16:40.627Z,27.71
2018-06-27T14:17:41.588Z,27.45
2018-06-27T14:18:40.476Z,27.53
2018-06-27T14:19:40.427Z,27.42
2018-06-27T14:20:40.324Z,27.33
2018-06-27T14:21:40.264Z,27.28
2018-06-27T14:22:40.218Z,27.06
2018-06-27T14:23:40.133Z,27.01
2018-06-27T14:24:40.055Z,26.98
2018-06-27T14:25:39.967Z,26.93
2018-06-27T14:26:39.896Z,26.87
2018-06-27T14:29:22.089Z,27.28
2018-06-27T14:30:22.007Z,27.13
2018-06-27T14:31:21.917Z,27.27
2018-06-27T14:32:21.906Z,27.12
2018-06-27T14:33:21.799Z,27.30
2018-06-27T14:34:21.719Z,27.18
2018-06-27T14:35:21.628Z,27.20
2018-06-27T14:38:03.595Z,27.13
2018-06-27T14:39:03.526Z,26.97
2018-06-27T14:40:03.431Z,27.20
2018-06-27T14:41:03.357Z,27.20
2018-06-27T14:42:03.272Z,27.34
2018-06-27T14:43:03.212Z,27.33
2018-06-27T14:44:03.190Z,26.96
2018-06-27T14:46:45.079Z,27.09
2018-06-27T14:49:39.592Z,27.24
2018-06-27T14:50:39.517Z,27.18
2018-06-27T14:51:39.467Z,27.27
2018-06-27T14:52:39.360Z,27.11
2018-06-27T14:53:39.291Z,27.27
2018-06-27T14:54:39.217Z,27.15
2018-06-27T14:55:39.127Z,27.27
2018-06-27T14:56:39.150Z,27.18
2018-06-27T14:57:39.046Z,27.12
2018-06-27T14:58:38.981Z,27.18
2018-06-27T14:59:38.894Z,27.09
2018-06-27T15:00:38.775Z,27.12
2018-06-27T15:01:38.746Z,27.11
2018-06-27T15:02:38.629Z,27.09
2018-06-27T15:03:38.542Z,27.02
2018-06-27T15:04:38.606Z,27.02
2018-06-27T15:05:38.395Z,27.01
2018-06-27T15:06:38.364Z,27.03
2018-06-27T15:07:38.258Z,27.02
2018-06-27T15:10:20.180Z,26.88
2018-06-27T15:11:20.112Z,26.88
2018-06-27T15:12:19.951Z,26.84
2018-06-27T15:15:02.139Z,26.90
2018-06-27T15:16:04.098Z,26.97
2018-06-27T15:17:01.949Z,26.98
2018-06-27T15:18:01.962Z,26.97
2018-06-27T15:19:01.800Z,26.98
2018-06-27T15:21:44.119Z,26.98
2018-06-27T15:24:26.102Z,26.87
2018-06-27T15:25:26.034Z,26.83
2018-06-27T15:26:25.933Z,26.90
2018-06-27T15:27:25.877Z,27.09
2018-06-27T15:28:25.794Z,26.98
2018-06-27T15:29:25.752Z,26.90
2018-06-27T15:30:25.684Z,26.88